createdAt,value
2022-11-13T00:00:19.546Z,89.97
2022-11-13T00:03:05.076Z,90.09
2022-11-13T00:05:59.046Z,89.96
2022-11-13T00:08:45.091Z,89.85
2022-11-13T00:11:30.662Z,89.50
2022-11-13T00:14:16.493Z,89.38
2022-11-13T00:17:03.419Z,89.30
2022-11-13T00:19:49.170Z,90.58
2022-11-13T00:22:35.344Z,90.12
2022-11-13T00:25:20.684Z,89.74
2022-11-13T00:28:06.168Z,90.24
2022-11-13T00:30:57.537Z,90.21
2022-11-13T00:34:09.158Z,90.41
2022-11-13T00:36:50.561Z,90.47
2022-11-13T00:39:36.012Z,90.30
2022-11-13T00:42:21.701Z,90.05
2022-11-13T00:45:08.063Z,90.06
2022-11-13T00:47:53.685Z,90.61
2022-11-13T00:50:40.982Z,90.51
2022-11-13T00:53:27.055Z,90.42
2022-11-13T00:56:12.561Z,91.97
2022-11-13T00:59:06.469Z,92.00
2022-11-13T01:01:52.457Z,92.15
2022-11-13T01:04:38.415Z,92.46
2022-11-13T01:07:26.060Z,92.27
2022-11-13T01:10:11.426Z,92.16
2022-11-13T01:12:57.099Z,92.06
2022-11-13T01:15:45.080Z,92.72
2022-11-13T01:18:31.036Z,93.05
2022-11-13T01:21:19.986Z,92.88
2022-11-13T01:24:07.442Z,93.24
2022-11-13T01:26:53.370Z,92.53
2022-11-13T01:29:39.309Z,91.90
2022-11-13T01:32:24.943Z,92.43
2022-11-13T01:35:10.229Z,91.92
2022-11-13T01:37:58.845Z,92.07
2022-11-13T01:40:47.976Z,92.75
2022-11-13T01:43:37.696Z,92.88
2022-11-13T01:46:31.371Z,92.47
2022-11-13T01:49:30.558Z,92.79
2022-11-13T01:52:20.249Z,92.33
2022-11-13T01:55:12.752Z,92.67
2022-11-13T01:58:02.452Z,92.52
2022-11-13T02:00:48.435Z,92.23
2022-11-13T02:03:34.124Z,92.05
2022-11-13T02:06:20.862Z,91.93
2022-11-13T02:09:07.614Z,91.92
2022-11-13T02:11:53.830Z,92.08
2022-11-13T02:14:45.422Z,92.19
2022-11-13T02:17:37.577Z,91.82
2022-11-13T02:20:35.113Z,91.88
2022-11-13T02:23:31.236Z,91.55
2022-11-13T02:26:23.868Z,91.51
2022-11-13T02:29:09.097Z,91.23
2022-11-13T02:31:54.479Z,91.75
2022-11-13T02:34:40.121Z,91.11
2022-11-13T02:37:25.729Z,90.72
2022-11-13T02:40:13.148Z,90.76
2022-11-13T02:43:01.318Z,90.08
2022-11-13T02:45:46.795Z,90.70
2022-11-13T02:48:32.341Z,90.34
2022-11-13T02:51:17.779Z,90.51
2022-11-13T02:54:04.090Z,90.20
2022-11-13T02:56:49.745Z,90.26
2022-11-13T02:59:36.734Z,90.12
2022-11-13T03:02:22.286Z,89.53
2022-11-13T03:05:12.399Z,89.83
2022-11-13T03:07:59.106Z,89.55
2022-11-13T03:10:44.822Z,89.25
2022-11-13T03:13:30.734Z,89.12
2022-11-13T03:16:18.282Z,88.83
2022-11-13T03:19:04.435Z,88.87
2022-11-13T03:21:50.749Z,89.10
2022-11-13T03:24:36.985Z,89.15
2022-11-13T03:27:22.819Z,88.98
2022-11-13T03:30:10.094Z,89.24
2022-11-13T03:32:57.828Z,89.53
2022-11-13T03:35:47.002Z,89.39
2022-11-13T03:38:34.192Z,89.36
2022-11-13T03:41:21.608Z,89.13
2022-11-13T03:44:06.861Z,88.78
2022-11-13T03:46:52.129Z,88.95
2022-11-13T03:49:39.287Z,88.83
2022-11-13T03:52:25.320Z,88.61
2022-11-13T03:55:11.138Z,88.41
2022-11-13T03:57:59.183Z,88.00
2022-11-13T04:00:46.691Z,87.91
2022-11-13T04:03:33.410Z,88.48
2022-11-13T04:06:20.225Z,87.92
2022-11-13T04:09:05.717Z,87.38
2022-11-13T04:11:51.376Z,87.31
2022-11-13T04:14:37.201Z,87.23
2022-11-13T04:17:22.414Z,87.56
2022-11-13T04:20:09.579Z,87.34
2022-11-13T04:22:57.629Z,87.12
2022-11-13T04:25:43.551Z,87.70
2022-11-13T04:28:30.198Z,87.81
2022-11-13T04:31:15.817Z,87.88
2022-11-13T04:34:01.332Z,88.55
2022-11-13T04:36:47.263Z,88.42
2022-11-13T04:39:33.783Z,88.65
2022-11-13T04:42:19.036Z,88.60
2022-11-13T04:45:06.024Z,88.47
2022-11-13T04:47:51.657Z,88.65
2022-11-13T04:50:37.480Z,89.76
2022-11-13T04:53:26.474Z,90.52
2022-11-13T04:56:13.837Z,90.19
2022-11-13T04:58:59.374Z,90.30
2022-11-13T05:01:45.043Z,90.49
2022-11-13T05:04:30.158Z,89.67
2022-11-13T05:07:16.419Z,89.91
2022-11-13T05:10:01.626Z,89.48
2022-11-13T05:12:48.474Z,88.78
2022-11-13T05:15:34.101Z,89.03
2022-11-13T05:18:19.842Z,89.35
2022-11-13T05:21:08.054Z,88.48
2022-11-13T05:23:53.338Z,88.53
2022-11-13T05:26:40.424Z,88.62
2022-11-13T05:29:27.373Z,88.84
2022-11-13T05:32:13.014Z,88.70
2022-11-13T05:34:58.465Z,88.55
2022-11-13T05:37:43.868Z,88.33
2022-11-13T05:40:29.976Z,88.39
2022-11-13T05:43:15.494Z,87.87
2022-11-13T05:46:06.066Z,88.30
2022-11-13T05:48:54.749Z,88.44
2022-11-13T05:51:40.357Z,88.87
2022-11-13T05:54:26.193Z,88.99
2022-11-13T05:57:11.492Z,88.94
2022-11-13T05:59:56.955Z,89.29
2022-11-13T06:02:44.240Z,88.92
2022-11-13T06:05:29.700Z,89.28
2022-11-13T06:08:14.915Z,89.20
2022-11-13T06:11:02.835Z,90.13
2022-11-13T06:13:49.778Z,89.56
2022-11-13T06:16:38.414Z,89.07
2022-11-13T06:19:25.634Z,89.80
2022-11-13T06:22:11.801Z,89.27
2022-11-13T06:24:56.947Z,89.05
2022-11-13T06:27:42.794Z,89.27
2022-11-13T06:30:28.763Z,88.98
2022-11-13T06:33:14.739Z,88.41
2022-11-13T06:36:03.630Z,88.21
2022-11-13T06:38:50.357Z,88.15
2022-11-13T06:41:38.877Z,88.58
2022-11-13T06:44:24.485Z,89.84
2022-11-13T06:47:10.480Z,90.21
2022-11-13T06:49:56.059Z,90.79
2022-11-13T06:52:42.798Z,90.13
2022-11-13T06:55:27.855Z,90.25
2022-11-13T06:58:14.725Z,89.78
2022-11-13T07:01:06.074Z,89.67
2022-11-13T07:03:51.884Z,89.48
2022-11-13T07:06:40.599Z,89.82
2022-11-13T07:09:35.082Z,89.10
2022-11-13T07:12:20.971Z,88.78
2022-11-13T07:15:07.486Z,89.02
2022-11-13T07:17:53.782Z,88.62
2022-11-13T07:20:39.325Z,88.53
2022-11-13T07:23:27.832Z,89.11
2022-11-13T07:26:15.171Z,88.17
2022-11-13T07:29:00.759Z,88.12
2022-11-13T07:31:46.368Z,88.37
2022-11-13T07:34:31.894Z,88.61
2022-11-13T07:37:17.746Z,88.30
2022-11-13T07:40:07.004Z,88.31
2022-11-13T07:42:58.881Z,88.18
2022-11-13T07:45:44.782Z,88.37
2022-11-13T07:48:31.035Z,88.46
2022-11-13T07:51:16.769Z,87.71
2022-11-13T07:54:02.348Z,87.90
2022-11-13T07:56:47.638Z,87.48
2022-11-13T07:59:35.080Z,87.17
2022-11-13T08:02:26.657Z,87.11
2022-11-13T08:05:15.044Z,87.34
2022-11-13T08:08:01.371Z,87.79
2022-11-13T08:10:47.575Z,88.57
2022-11-13T08:13:34.135Z,88.88
2022-11-13T08:16:20.983Z,85.80
2022-11-13T08:19:06.925Z,86.98
2022-11-13T08:21:52.475Z,84.05
2022-11-13T08:24:38.083Z,84.53
2022-11-13T08:27:24.978Z,84.54
2022-11-13T08:30:12.698Z,84.81
2022-11-13T08:33:03.107Z,85.75
2022-11-13T08:35:56.129Z,84.01
2022-11-13T08:38:41.879Z,83.02
2022-11-13T08:41:27.192Z,84.56
2022-11-13T08:44:14.039Z,82.24
2022-11-13T08:47:02.697Z,80.28
2022-11-13T08:49:50.093Z,79.22
2022-11-13T08:52:35.591Z,81.51
2022-11-13T08:55:21.307Z,79.63
2022-11-13T08:58:06.504Z,74.33
2022-11-13T09:00:52.333Z,68.01
2022-11-13T09:03:37.974Z,63.86
2022-11-13T09:06:28.761Z,59.46
2022-11-13T09:09:15.317Z,55.71
2022-11-13T09:12:30.449Z,54.69
2022-11-13T09:15:19.125Z,50.42
2022-11-13T09:18:15.542Z,51.86
2022-11-13T09:21:02.482Z,51.25
2022-11-13T09:23:49.635Z,50.18
2022-11-13T09:26:37.369Z,46.81
2022-11-13T09:29:23.774Z,45.29
2022-11-13T09:32:09.202Z,43.97
2022-11-13T09:34:54.561Z,42.29
2022-11-13T09:37:40.560Z,41.63
2022-11-13T09:40:33.944Z,40.92
2022-11-13T09:43:34.845Z,39.33
2022-11-13T09:47:14.818Z,39.68
2022-11-13T09:50:10.851Z,40.83
2022-11-13T09:52:57.205Z,44.81
2022-11-13T09:56:02.594Z,51.58
2022-11-13T09:59:09.785Z,45.90
2022-11-13T10:02:10.959Z,42.30
2022-11-13T10:05:10.854Z,40.74
2022-11-13T10:08:07.616Z,41.42
2022-11-13T10:11:09.079Z,39.76
2022-11-13T10:14:01.671Z,38.30
2022-11-13T10:16:55.585Z,36.67
2022-11-13T10:19:53.023Z,36.88
2022-11-13T10:22:49.483Z,36.22
2022-11-13T10:25:38.104Z,34.92
2022-11-13T10:28:49.352Z,34.68
2022-11-13T10:31:46.401Z,33.76
2022-11-13T10:34:32.638Z,33.70
2022-11-13T10:37:39.944Z,32.64
2022-11-13T10:40:26.327Z,32.63
2022-11-13T10:43:16.742Z,33.50
2022-11-13T10:46:05.963Z,34.70
2022-11-13T10:48:52.514Z,33.77
2022-11-13T10:51:38.477Z,33.51
2022-11-13T10:54:28.840Z,34.56
2022-11-13T10:57:30.053Z,34.12
2022-11-13T11:00:23.623Z,33.36
2022-11-13T11:03:15.738Z,33.00
2022-11-13T11:06:04.236Z,34.47
2022-11-13T11:08:49.675Z,37.46
2022-11-13T11:11:34.863Z,35.15
2022-11-13T11:14:26.877Z,33.76
2022-11-13T11:17:18.358Z,32.51
2022-11-13T11:20:21.001Z,32.43
2022-11-13T11:23:22.918Z,32.33
2022-11-13T11:26:15.573Z,31.96
2022-11-13T11:29:16.012Z,31.91
2022-11-13T11:32:15.760Z,31.44
2022-11-13T11:35:14.343Z,31.56
2022-11-13T11:38:11.476Z,32.08
2022-11-13T11:41:17.686Z,32.51
2022-11-13T11:44:18.159Z,32.31
2022-11-13T11:47:04.734Z,30.84
2022-11-13T11:49:50.416Z,31.38
2022-11-13T11:52:59.771Z,30.66
2022-11-13T11:56:06.120Z,31.28
2022-11-13T11:59:15.523Z,31.23
2022-11-13T12:02:50.034Z,31.77
2022-11-13T12:05:49.228Z,32.38
2022-11-13T12:08:48.654Z,32.81
2022-11-13T12:11:40.058Z,35.09
2022-11-13T12:14:45.019Z,38.56
2022-11-13T12:17:50.582Z,42.02
2022-11-13T12:20:49.423Z,43.90
2022-11-13T12:24:06.078Z,45.52
2022-11-13T12:27:06.831Z,46.37
2022-11-13T12:30:13.847Z,47.15
2022-11-13T12:33:27.468Z,48.32
2022-11-13T12:36:14.446Z,48.41
2022-11-13T12:39:14.564Z,49.02
2022-11-13T12:42:13.826Z,48.04
2022-11-13T12:45:10.930Z,48.17
2022-11-13T12:48:07.278Z,51.67
2022-11-13T12:51:04.838Z,52.15
2022-11-13T12:54:12.238Z,52.42
2022-11-13T12:57:20.221Z,53.43
2022-11-13T13:00:24.734Z,53.26
2022-11-13T13:03:36.375Z,53.78
2022-11-13T13:06:51.259Z,53.19
2022-11-13T13:10:03.827Z,54.71
2022-11-13T13:13:02.629Z,55.25
2022-11-13T13:15:58.537Z,55.35
2022-11-13T13:18:44.252Z,55.83
2022-11-13T13:21:41.880Z,56.02
2022-11-13T13:24:34.566Z,56.66
2022-11-13T13:27:27.808Z,56.90
2022-11-13T13:30:20.517Z,57.11
2022-11-13T13:33:23.008Z,57.35
2022-11-13T13:36:25.726Z,57.30
2022-11-13T13:39:28.178Z,56.86
2022-11-13T13:42:57.617Z,58.24
2022-11-13T13:46:01.231Z,57.78
2022-11-13T13:48:50.534Z,57.75
2022-11-13T13:51:44.003Z,58.28
2022-11-13T13:54:33.980Z,58.24
2022-11-13T13:57:20.325Z,57.69
2022-11-13T14:00:12.562Z,57.82
2022-11-13T14:03:19.601Z,58.57
2022-11-13T14:06:17.137Z,58.80
2022-11-13T14:09:15.737Z,57.10
2022-11-13T14:12:16.925Z,56.90
2022-11-13T14:15:05.246Z,57.20
2022-11-13T14:17:50.626Z,57.38
2022-11-13T14:29:59.428Z,59.73
2022-11-13T14:32:47.297Z,60.46
2022-11-13T14:35:33.460Z,60.62
2022-11-13T14:38:24.902Z,61.07
2022-11-13T14:41:24.728Z,61.30
2022-11-13T14:44:12.125Z,61.53
2022-11-13T14:47:04.998Z,62.63
2022-11-13T14:49:50.759Z,63.15
2022-11-13T14:52:36.483Z,63.56
2022-11-13T14:55:25.574Z,64.61
2022-11-13T14:58:13.680Z,64.82
2022-11-13T15:01:12.105Z,64.81
2022-11-13T15:03:58.873Z,64.90
2022-11-13T15:06:45.141Z,65.51
2022-11-13T15:09:31.376Z,66.16
2022-11-13T15:12:17.119Z,66.80
2022-11-13T15:15:03.119Z,66.97
2022-11-13T15:17:51.926Z,67.06
2022-11-13T15:20:41.703Z,67.38
2022-11-13T15:23:27.398Z,67.36
2022-11-13T15:26:13.604Z,68.14
2022-11-13T15:28:59.245Z,68.04
2022-11-13T15:31:47.459Z,68.39
2022-11-13T15:34:33.391Z,68.87
2022-11-13T15:37:21.513Z,68.40
2022-11-13T15:40:10.644Z,68.72
2022-11-13T15:42:56.931Z,69.16
2022-11-13T15:45:44.442Z,69.71
2022-11-13T15:48:34.922Z,70.52
2022-11-13T15:51:26.674Z,70.57
2022-11-13T15:54:31.774Z,71.09
2022-11-13T15:57:21.682Z,70.47
2022-11-13T16:00:15.076Z,71.06
2022-11-13T16:03:01.475Z,71.28
2022-11-13T16:05:46.717Z,71.75
2022-11-13T16:08:32.477Z,72.31
2022-11-13T16:11:21.013Z,72.40
2022-11-13T16:14:07.169Z,72.06
2022-11-13T16:16:53.700Z,73.23
2022-11-13T16:19:42.119Z,73.86
2022-11-13T16:22:27.874Z,74.55
2022-11-13T16:25:16.703Z,75.68
2022-11-13T16:28:04.543Z,75.73
2022-11-13T16:30:51.094Z,75.35
2022-11-13T16:33:37.420Z,75.60
2022-11-13T16:36:22.917Z,75.95
2022-11-13T16:39:16.300Z,77.43
2022-11-13T16:42:02.270Z,79.13
2022-11-13T16:44:50.421Z,79.91
2022-11-13T16:47:35.746Z,80.60
2022-11-13T16:50:27.782Z,80.97
2022-11-13T16:53:13.505Z,81.49
2022-11-13T16:56:00.424Z,82.10
2022-11-13T16:58:46.152Z,82.57
2022-11-13T17:01:33.179Z,83.21
2022-11-13T17:04:18.802Z,83.40
2022-11-13T17:07:04.417Z,83.62
2022-11-13T17:10:09.988Z,84.25
2022-11-13T17:12:55.677Z,84.59
2022-11-13T17:15:40.809Z,84.05
2022-11-13T17:18:28.089Z,84.47
2022-11-13T17:21:13.266Z,85.08
2022-11-13T17:24:05.052Z,85.40
2022-11-13T17:26:50.732Z,84.94
2022-11-13T17:29:36.557Z,84.96
2022-11-13T17:32:21.762Z,84.84
2022-11-13T17:35:11.528Z,85.39
2022-11-13T17:37:57.471Z,85.33
2022-11-13T17:40:42.709Z,86.29
2022-11-13T17:43:28.545Z,87.30
2022-11-13T17:46:17.381Z,86.54
2022-11-13T17:49:03.338Z,87.02
2022-11-13T17:51:50.560Z,85.78
2022-11-13T17:54:35.917Z,85.67
2022-11-13T17:57:26.539Z,86.54
2022-11-13T18:00:14.074Z,86.17
2022-11-13T18:02:59.629Z,87.93
2022-11-13T18:05:45.952Z,89.03
2022-11-13T18:08:33.659Z,88.90
2022-11-13T18:11:24.904Z,88.60
2022-11-13T18:14:10.714Z,87.69
2022-11-13T18:16:56.037Z,87.69
2022-11-13T18:19:41.880Z,87.24
2022-11-13T18:22:27.527Z,87.40
2022-11-13T18:25:14.894Z,87.07
2022-11-13T18:28:00.167Z,86.75
2022-11-13T18:30:45.567Z,86.70
2022-11-13T18:33:32.905Z,85.64
2022-11-13T18:36:19.225Z,84.67
2022-11-13T18:39:05.002Z,84.31
2022-11-13T18:41:52.331Z,83.86
2022-11-13T18:44:37.996Z,84.46
2022-11-13T18:47:24.089Z,83.57
2022-11-13T18:50:10.046Z,84.03
2022-11-13T18:52:55.667Z,83.54
2022-11-13T18:55:41.219Z,85.39
2022-11-13T18:58:28.908Z,87.74
2022-11-13T19:01:22.214Z,88.63
2022-11-13T19:04:24.355Z,88.58
2022-11-13T19:07:10.139Z,89.08
2022-11-13T19:09:55.853Z,89.07
2022-11-13T19:12:42.288Z,88.52
2022-11-13T19:18:59.141Z,90.24
2022-11-13T19:21:48.728Z,89.89
2022-11-13T19:25:53.616Z,89.89
2022-11-13T19:28:04.102Z,89.19
2022-11-13T19:30:51.213Z,88.96
2022-11-13T19:33:39.237Z,89.22
2022-11-13T19:36:29.111Z,89.03
2022-11-13T19:39:15.307Z,88.75
2022-11-13T19:42:02.627Z,88.95
2022-11-13T19:44:56.028Z,90.18
2022-11-13T19:47:43.399Z,90.16
2022-11-13T19:50:29.234Z,90.50
2022-11-13T19:53:15.005Z,90.29
2022-11-13T19:56:00.510Z,90.20
2022-11-13T19:58:48.558Z,90.35
2022-11-13T20:01:34.076Z,90.68
2022-11-13T20:04:21.198Z,91.12
2022-11-13T20:07:06.784Z,89.43
2022-11-13T20:09:52.147Z,88.26
2022-11-13T20:12:37.913Z,88.46
2022-11-13T20:15:23.633Z,88.27
2022-11-13T20:18:09.347Z,87.83
2022-11-13T20:20:57.753Z,87.37
2022-11-13T20:23:43.318Z,87.65
2022-11-13T20:26:29.438Z,86.97
2022-11-13T20:29:18.103Z,86.70
2022-11-13T20:32:04.804Z,85.43
2022-11-13T20:34:50.518Z,85.96
2022-11-13T20:37:38.138Z,85.30
2022-11-13T20:40:23.382Z,84.75
2022-11-13T20:43:11.669Z,85.00
2022-11-13T20:46:36.393Z,85.57
2022-11-13T20:49:24.463Z,84.50
2022-11-13T20:52:30.995Z,84.80
2022-11-13T20:55:20.987Z,85.15
2022-11-13T20:58:06.975Z,85.60
2022-11-13T21:01:15.459Z,86.54
2022-11-13T21:04:00.880Z,86.07
2022-11-13T21:06:47.760Z,85.69
2022-11-13T21:09:34.433Z,84.98
2022-11-13T21:12:30.668Z,84.78
2022-11-13T21:16:17.588Z,84.53
2022-11-13T21:19:05.689Z,84.61
2022-11-13T21:21:52.561Z,84.45
2022-11-13T21:24:38.223Z,84.74
2022-11-13T21:27:28.585Z,85.24
2022-11-13T21:30:19.325Z,85.23
2022-11-13T21:33:11.039Z,84.88
2022-11-13T21:36:27.741Z,84.76
2022-11-13T21:39:13.302Z,84.47
2022-11-13T21:41:58.753Z,84.51
2022-11-13T21:44:45.275Z,84.34
2022-11-13T21:47:31.004Z,84.03
2022-11-13T21:50:17.004Z,83.98
2022-11-13T21:53:02.242Z,83.76
2022-11-13T21:55:51.188Z,84.32
2022-11-13T21:58:40.238Z,84.37
2022-11-13T22:01:28.037Z,84.66
2022-11-13T22:04:14.046Z,84.18
2022-11-13T22:06:59.702Z,83.85
2022-11-13T22:09:44.858Z,83.73
2022-11-13T22:12:30.122Z,83.40
2022-11-13T22:15:15.909Z,83.33
2022-11-13T22:18:02.821Z,83.53
2022-11-13T22:20:48.798Z,83.79
2022-11-13T22:23:35.460Z,85.42
2022-11-13T22:26:23.287Z,87.12
2022-11-13T22:29:09.653Z,86.45
2022-11-13T22:31:54.790Z,85.48
2022-11-13T22:34:41.371Z,88.10
2022-11-13T22:37:26.642Z,88.43
2022-11-13T22:40:13.297Z,92.49
2022-11-13T22:42:58.864Z,91.99
2022-11-13T22:45:44.408Z,92.19
2022-11-13T22:48:30.152Z,93.03
2022-11-13T22:51:20.668Z,92.33
2022-11-13T22:54:09.268Z,91.33
2022-11-13T22:56:54.822Z,91.06
2022-11-13T22:59:40.013Z,90.38
2022-11-13T23:02:26.155Z,90.33
2022-11-13T23:05:11.899Z,89.73
2022-11-13T23:07:58.958Z,88.80
2022-11-13T23:10:52.304Z,87.31
2022-11-13T23:13:40.723Z,86.31
2022-11-13T23:16:27.412Z,86.26
2022-11-13T23:19:13.180Z,85.59
2022-11-13T23:21:58.689Z,85.61
2022-11-13T23:24:45.585Z,85.57
2022-11-13T23:27:31.412Z,89.28
2022-11-13T23:30:17.270Z,89.17
2022-11-13T23:33:02.416Z,89.87
2022-11-13T23:35:48.849Z,89.60
2022-11-13T23:38:34.563Z,89.26
2022-11-13T23:41:21.356Z,89.44
2022-11-13T23:44:09.099Z,89.16
2022-11-13T23:46:55.908Z,88.78
2022-11-13T23:49:42.492Z,87.97
2022-11-13T23:52:28.064Z,88.56
2022-11-13T23:55:15.055Z,88.12
2022-11-13T23:58:04.799Z,87.24
